^^
Grace C. Lehan Memorial Weather Station Historical Data
Daily Summary for January 4, 2021 Units:  Both    English   Metric
Daily Weekly Monthly Yearly
  High: Low: Average:
Temperature: 78.8 °F /  26 °C 65.4 °F /  18.6 °C 71.2 °F /  21.8 °C
Dew Point: 71.4 °F /  21.9 °C 63.9 °F /  17.7 °C 66.8 °F /  19.3 °C
Humidity: 96% 69.6% 87%
Wind Speed: 3mph /  4.8km/h - 0.2mph /  0.3km/h
Wind Gust: 11mph /  17.7km/h - -
Wind- - WSW
Pressure: 29.88 in /  1011.7 hPa 29.80 in /  1009 hPa -
Precipitation: 0.02 in /  0.51 mm    
 
 
Tabular Data for January 4, 2021
Time Temperature Dew Point Pressure Wind Wind Speed Wind Gust Humidity Rainfall Rate (Hourly) solar
00:04 66.3 °F /  19.1 °C 64.5 °F /  18.1 °C 29.88in /  1011.7hPa Calm     94% 0.00in /  0mm 0 W/m2
00:09 66.3 °F /  19.1 °C 64.5 °F /  18.1 °C 29.88in /  1011.7hPa Calm     94% 0.00in /  0mm 0 W/m2
00:14 66.2 °F /  19 °C 64.4 °F /  18 °C 29.88in /  1011.7hPa SW 0.1mph /  0.2km/h 2mph /  3.2km/h 94% 0.00in /  0mm 0 W/m2
00:19 66.2 °F /  19 °C 64.4 °F /  18 °C 29.88in /  1011.7hPa Calm   2mph /  3.2km/h 94% 0.00in /  0mm 0 W/m2
00:24 66.1 °F /  18.9 °C 64.5 °F /  18.1 °C 29.88in /  1011.7hPa Calm   2mph /  3.2km/h 94.6% 0.00in /  0mm 0 W/m2
00:29 66.1 °F /  18.9 °C 64.6 °F /  18.1 °C 29.88in /  1011.7hPa Calm   2mph /  3.2km/h 94.9% 0.00in /  0mm 0 W/m2
00:34 66 °F /  18.9 °C 64.2 °F /  17.9 °C 29.88in /  1011.7hPa Calm   2mph /  3.2km/h 94% 0.00in /  0mm 0 W/m2
00:39 65.9 °F /  18.8 °C 64.2 °F /  17.9 °C 29.88in /  1011.7hPa SW 0.1mph /  0.2km/h 2mph /  3.2km/h 94.2% 0.00in /  0mm 0 W/m2
00:44 65.9 °F /  18.8 °C 64.4 °F /  18 °C 29.88in /  1011.7hPa SW 0.1mph /  0.2km/h 2mph /  3.2km/h 95% 0.00in /  0mm 0 W/m2
00:49 65.8 °F /  18.8 °C 64.4 °F /  18 °C 29.88in /  1011.7hPa Calm   2mph /  3.2km/h 95% 0.00in /  0mm 0 W/m2
00:54 65.8 °F /  18.8 °C 64.3 °F /  17.9 °C 29.88in /  1011.7hPa Calm   2mph /  3.2km/h 95% 0.00in /  0mm 0 W/m2
00:59 65.8 °F /  18.8 °C 64.3 °F /  17.9 °C 29.88in /  1011.7hPa Calm   2mph /  3.2km/h 95% 0.00in /  0mm 0 W/m2
01:04 65.8 °F /  18.8 °C 64.3 °F /  17.9 °C 29.88in /  1011.7hPa SW 0.1mph /  0.2km/h 3mph /  4.8km/h 95% 0.00in /  0mm 0 W/m2
01:09 65.7 °F /  18.7 °C 64.2 °F /  17.9 °C 29.88in /  1011.7hPa Calm   3mph /  4.8km/h 95% 0.00in /  0mm 0 W/m2
01:14 65.7 °F /  18.7 °C 64.2 °F /  17.9 °C 29.88in /  1011.7hPa SW 0.1mph /  0.2km/h 4mph /  6.4km/h 95% 0.00in /  0mm 0 W/m2
01:19 65.7 °F /  18.7 °C 64.2 °F /  17.9 °C 29.87in /  1011.4hPa SW 0.1mph /  0.2km/h 4mph /  6.4km/h 95% 0.00in /  0mm 0 W/m2
01:24 65.6 °F /  18.7 °C 64.1 °F /  17.8 °C 29.87in /  1011.4hPa Calm   4mph /  6.4km/h 95% 0.00in /  0mm 0 W/m2
01:29 65.6 °F /  18.7 °C 64.1 °F /  17.8 °C 29.87in /  1011.4hPa SW 0.1mph /  0.2km/h 6mph /  9.7km/h 95% 0.00in /  0mm 0 W/m2
01:34 65.5 °F /  18.6 °C 64.1 °F /  17.8 °C 29.88in /  1011.7hPa Calm   6mph /  9.7km/h 95% 0.00in /  0mm 0 W/m2
01:39 65.5 °F /  18.6 °C 64 °F /  17.8 °C 29.88in /  1011.7hPa SW 0.1mph /  0.2km/h 2mph /  3.2km/h 95% 0.00in /  0mm 0 W/m2
01:44 65.5 °F /  18.6 °C 64 °F /  17.8 °C 29.88in /  1011.7hPa Calm   2mph /  3.2km/h 95% 0.00in /  0mm 0 W/m2
01:49 65.5 °F /  18.6 °C 64 °F /  17.8 °C 29.88in /  1011.7hPa Calm   2mph /  3.2km/h 95% 0.00in /  0mm 0 W/m2
01:54 65.4 °F /  18.6 °C 64 °F /  17.8 °C 29.87in /  1011.4hPa Calm   2mph /  3.2km/h 95% 0.00in /  0mm 0 W/m2
01:59 65.4 °F /  18.6 °C 63.9 °F /  17.7 °C 29.87in /  1011.4hPa Calm   2mph /  3.2km/h 95% 0.00in /  0mm 0 W/m2
02:04 65.4 °F /  18.6 °C 63.9 °F /  17.7 °C 29.87in /  1011.4hPa Calm   2mph /  3.2km/h 95% 0.00in /  0mm 0 W/m2
02:09 65.4 °F /  18.6 °C 63.9 °F /  17.7 °C 29.87in /  1011.4hPa Calm     95% 0.00in /  0mm 0 W/m2
02:14 65.4 °F /  18.6 °C 64 °F /  17.8 °C 29.87in /  1011.4hPa Calm     95% 0.00in /  0mm 0 W/m2
02:19 65.5 °F /  18.6 °C 64 °F /  17.8 °C 29.86in /  1011.1hPa Calm     95% 0.00in /  0mm 0 W/m2
02:24 65.5 °F /  18.6 °C 64 °F /  17.8 °C 29.87in /  1011.4hPa Calm     95% 0.00in /  0mm 0 W/m2
02:29 65.5 °F /  18.6 °C 64 °F /  17.8 °C 29.87in /  1011.4hPa Calm     95% 0.00in /  0mm 0 W/m2
02:34 65.5 °F /  18.6 °C 64.1 °F /  17.8 °C 29.87in /  1011.4hPa Calm     95% 0.00in /  0mm 0 W/m2
02:39 65.6 °F /  18.7 °C 64.1 °F /  17.8 °C 29.86in /  1011.1hPa Calm     95% 0.00in /  0mm 0 W/m2
02:44 65.7 °F /  18.7 °C 64.2 °F /  17.9 °C 29.86in /  1011.1hPa Calm     95% 0.00in /  0mm 0 W/m2
02:49 65.7 °F /  18.7 °C 64.2 °F /  17.9 °C 29.86in /  1011.1hPa Calm     95% 0.00in /  0mm 0 W/m2
02:54 65.8 °F /  18.8 °C 64.3 °F /  17.9 °C 29.86in /  1011.1hPa Calm     95% 0.00in /  0mm 0 W/m2
02:59 65.8 °F /  18.8 °C 64.4 °F /  18 °C 29.86in /  1011.1hPa Calm     95% 0.00in /  0mm 0 W/m2
03:04 65.9 °F /  18.8 °C 64.4 °F /  18 °C 29.86in /  1011.1hPa Calm     95% 0.00in /  0mm 0 W/m2
03:09 66 °F /  18.9 °C 64.5 °F /  18.1 °C 29.86in /  1011.1hPa Calm     95% 0.00in /  0mm 0 W/m2
03:14 66 °F /  18.9 °C 64.5 °F /  18.1 °C 29.86in /  1011.1hPa Calm     95% 0.00in /  0mm 0 W/m2
03:19 66 °F /  18.9 °C 64.5 °F /  18.1 °C 29.86in /  1011.1hPa Calm     95% 0.00in /  0mm 0 W/m2
03:24 66 °F /  18.9 °C 64.5 °F /  18.1 °C 29.86in /  1011.1hPa Calm     95% 0.00in /  0mm 0 W/m2
03:29 66.1 °F /  18.9 °C 64.6 °F /  18.1 °C 29.86in /  1011.1hPa Calm     95% 0.00in /  0mm 0 W/m2
03:34 66.1 °F /  18.9 °C 64.6 °F /  18.1 °C 29.86in /  1011.1hPa Calm     95% 0.00in /  0mm 0 W/m2
03:39 66.1 °F /  18.9 °C 64.6 °F /  18.1 °C 29.85in /  1010.7hPa Calm   2mph /  3.2km/h 95% 0.00in /  0mm 0 W/m2
03:44 66.1 °F /  18.9 °C 64.6 °F /  18.1 °C 29.86in /  1011.1hPa Calm   2mph /  3.2km/h 95% 0.00in /  0mm 0 W/m2
03:49 66.2 °F /  19 °C 64.7 °F /  18.2 °C 29.86in /  1011.1hPa Calm   2mph /  3.2km/h 95% 0.00in /  0mm 0 W/m2
03:54 66.2 °F /  19 °C 64.7 °F /  18.2 °C 29.86in /  1011.1hPa Calm   2mph /  3.2km/h 95% 0.00in /  0mm 0 W/m2
03:59 66.3 °F /  19.1 °C 64.8 °F /  18.2 °C 29.86in /  1011.1hPa SW 0.1mph /  0.2km/h 2mph /  3.2km/h 95% 0.00in /  0mm 0 W/m2
04:00 66.3 °F /  19.1 °C 64.8 °F /  18.2 °C 29.86in /  1011.1hPa Calm   2mph /  3.2km/h 95% 0.00in /  0mm 0 W/m2
04:09 66.3 °F /  19.1 °C 64.8 °F /  18.2 °C 29.86in /  1011.1hPa Calm     95% 0.00in /  0mm 0 W/m2
04:14 66.3 °F /  19.1 °C 64.9 °F /  18.3 °C 29.86in /  1011.1hPa Calm     95% 0.00in /  0mm 0 W/m2
04:19 66.4 °F /  19.1 °C 64.9 °F /  18.3 °C 29.86in /  1011.1hPa Calm     95% 0.00in /  0mm 0 W/m2
04:24 66.4 °F /  19.1 °C 64.9 °F /  18.3 °C 29.86in /  1011.1hPa Calm     95% 0.00in /  0mm 0 W/m2
04:29 66.4 °F /  19.1 °C 64.9 °F /  18.3 °C 29.86in /  1011.1hPa Calm     95% 0.00in /  0mm 0 W/m2
04:34 66.4 °F /  19.1 °C 64.9 °F /  18.3 °C 29.87in /  1011.4hPa Calm     95% 0.00in /  0mm 0 W/m2
04:39 66.5 °F /  19.2 °C 65 °F /  18.3 °C 29.87in /  1011.4hPa Calm     95% 0.00in /  0mm 0 W/m2
04:44 66.5 °F /  19.2 °C 65 °F /  18.3 °C 29.86in /  1011.1hPa Calm     95% 0.00in /  0mm 0 W/m2
04:49 66.5 °F /  19.2 °C 65 °F /  18.3 °C 29.86in /  1011.1hPa Calm     95% 0.00in /  0mm 0 W/m2
04:54 66.4 °F /  19.1 °C 64.9 °F /  18.3 °C 29.86in /  1011.1hPa Calm     95% 0.00in /  0mm 0 W/m2
04:59 66.4 °F /  19.1 °C 64.9 °F /  18.3 °C 29.86in /  1011.1hPa Calm     95% 0.00in /  0mm 0 W/m2
05:04 66.3 °F /  19.1 °C 64.8 °F /  18.2 °C 29.86in /  1011.1hPa Calm     95% 0.00in /  0mm 0 W/m2
05:09 66.3 °F /  19.1 °C 64.8 °F /  18.2 °C 29.86in /  1011.1hPa Calm     95% 0.00in /  0mm 0 W/m2
05:14 66.2 °F /  19 °C 64.7 °F /  18.2 °C 29.86in /  1011.1hPa Calm     95% 0.00in /  0mm 0 W/m2
05:19 66.2 °F /  19 °C 64.7 °F /  18.2 °C 29.86in /  1011.1hPa Calm     95% 0.00in /  0mm 0 W/m2
05:24 66.2 °F /  19 °C 64.7 °F /  18.2 °C 29.86in /  1011.1hPa Calm     95% 0.00in /  0mm 0 W/m2
05:29 66.2 °F /  19 °C 64.7 °F /  18.2 °C 29.86in /  1011.1hPa Calm     95% 0.00in /  0mm 5 W/m2
05:34 66.2 °F /  19 °C 64.7 °F /  18.2 °C 29.86in /  1011.1hPa Calm     95% 0.00in /  0mm 7 W/m2
05:39 66.2 °F /  19 °C 64.7 °F /  18.2 °C 29.86in /  1011.1hPa Calm     95% 0.00in /  0mm 11 W/m2
05:44 66.2 °F /  19 °C 64.7 °F /  18.2 °C 29.86in /  1011.1hPa Calm     95% 0.00in /  0mm 14 W/m2
05:49 66.2 °F /  19 °C 64.7 °F /  18.2 °C 29.86in /  1011.1hPa Calm     95% 0.00in /  0mm 18 W/m2
05:54 66.2 °F /  19 °C 64.7 °F /  18.2 °C 29.85in /  1010.7hPa Calm     95% 0.00in /  0mm 18 W/m2
05:59 66.1 °F /  18.9 °C 64.7 °F /  18.2 °C 29.86in /  1011.1hPa Calm     95% 0.00in /  0mm 28 W/m2
06:04 66.2 °F /  19 °C 64.7 °F /  18.2 °C 29.86in /  1011.1hPa Calm     95% 0.00in /  0mm 40 W/m2
06:09 66.3 °F /  19.1 °C 64.8 °F /  18.2 °C 29.86in /  1011.1hPa Calm     95.1% 0.00in /  0mm 42 W/m2
06:14 66.4 °F /  19.1 °C 65.2 °F /  18.4 °C 29.86in /  1011.1hPa Calm     96% 0.00in /  0mm 40 W/m2
06:19 66.5 °F /  19.2 °C 65.3 °F /  18.5 °C 29.86in /  1011.1hPa Calm     96% 0.00in /  0mm 40 W/m2
06:24 66.6 °F /  19.2 °C 65.4 °F /  18.6 °C 29.86in /  1011.1hPa Calm     96% 0.00in /  0mm 40 W/m2
06:29 66.7 °F /  19.3 °C 65.5 °F /  18.6 °C 29.86in /  1011.1hPa Calm     96% 0.00in /  0mm 51 W/m2
06:34 66.7 °F /  19.3 °C 65.6 °F /  18.7 °C 29.86in /  1011.1hPa Calm     96% 0.00in /  0mm 51 W/m2
06:39 66.8 °F /  19.3 °C 65.6 °F /  18.7 °C 29.86in /  1011.1hPa Calm     96% 0.00in /  0mm 62 W/m2
06:44 66.9 °F /  19.4 °C 65.7 °F /  18.7 °C 29.86in /  1011.1hPa Calm     96% 0.00in /  0mm 60 W/m2
06:49 67 °F /  19.4 °C 65.8 °F /  18.8 °C 29.87in /  1011.4hPa Calm     96% 0.00in /  0mm 74 W/m2
06:54 67.1 °F /  19.5 °C 65.9 °F /  18.8 °C 29.87in /  1011.4hPa Calm     96% 0.00in /  0mm 79 W/m2
06:59 67.2 °F /  19.6 °C 66 °F /  18.9 °C 29.87in /  1011.4hPa Calm     96% 0.00in /  0mm 77 W/m2
07:04 67.3 °F /  19.6 °C 66.1 °F /  18.9 °C 29.87in /  1011.4hPa Calm     96% 0.00in /  0mm 79 W/m2
07:09 67.4 °F /  19.7 °C 66.2 °F /  19 °C 29.87in /  1011.4hPa Calm     96% 0.00in /  0mm 109 W/m2
07:14 67.5 °F /  19.7 °C 66.4 °F /  19.1 °C 29.87in /  1011.4hPa Calm     96% 0.00in /  0mm 118 W/m2
07:19 67.6 °F /  19.8 °C 66.5 °F /  19.2 °C 29.86in /  1011.1hPa Calm     96% 0.00in /  0mm 153 W/m2
07:24 67.8 °F /  19.9 °C 66.6 °F /  19.2 °C 29.86in /  1011.1hPa Calm     96% 0.00in /  0mm 237 W/m2
07:29 68.1 °F /  20.1 °C 66.9 °F /  19.4 °C 29.86in /  1011.1hPa Calm     96% 0.00in /  0mm 237 W/m2
07:34 68.3 °F /  20.2 °C 67.2 °F /  19.6 °C 29.86in /  1011.1hPa Calm     96% 0.00in /  0mm 169 W/m2
07:39 68.6 °F /  20.3 °C 67.3 °F /  19.6 °C 29.86in /  1011.1hPa Calm     95.5% 0.00in /  0mm 197 W/m2
07:44 68.8 °F /  20.4 °C 67.3 °F /  19.6 °C 29.86in /  1011.1hPa Calm     95% 0.00in /  0mm 167 W/m2
07:49 69.1 °F /  20.6 °C 67.6 °F /  19.8 °C 29.86in /  1011.1hPa Calm     95% 0.00in /  0mm 221 W/m2
07:54 69.4 °F /  20.8 °C 67.8 °F /  19.9 °C 29.87in /  1011.4hPa SW 0.1mph /  0.2km/h 2mph /  3.2km/h 94.7% 0.00in /  0mm 221 W/m2
07:59 69.5 °F /  20.8 °C 67.7 °F /  19.8 °C 29.87in /  1011.4hPa Calm   2mph /  3.2km/h 94% 0.00in /  0mm 179 W/m2
08:04 69.8 °F /  21 °C 67.7 °F /  19.8 °C 29.86in /  1011.1hPa Calm     93% 0.00in /  0mm 186 W/m2
08:09 69.9 °F /  21.1 °C 67.7 °F /  19.8 °C 29.87in /  1011.4hPa Calm     92.8% 0.00in /  0mm 186 W/m2
08:14 70 °F /  21.1 °C 67.6 °F /  19.8 °C 29.87in /  1011.4hPa Calm     92% 0.00in /  0mm 183 W/m2
08:19 70.2 °F /  21.2 °C 67.8 °F /  19.9 °C 29.87in /  1011.4hPa Calm   1mph /  1.6km/h 91.9% 0.00in /  0mm 167 W/m2
08:23 70.3 °F /  21.3 °C 67.6 °F /  19.8 °C 29.87in /  1011.4hPa Calm   1mph /  1.6km/h 91% 0.00in /  0mm 105 W/m2
08:29 70.5 °F /  21.4 °C 67.7 °F /  19.8 °C 29.87in /  1011.4hPa Calm   1mph /  1.6km/h 91% 0.00in /  0mm 97 W/m2
08:34 70.6 °F /  21.4 °C 67.8 °F /  19.9 °C 29.87in /  1011.4hPa Calm   1mph /  1.6km/h 91% 0.00in /  0mm 74 W/m2
08:39 70.6 °F /  21.4 °C 67.8 °F /  19.9 °C 29.87in /  1011.4hPa Calm     90.8% 0.00in /  0mm 125 W/m2
08:44 70.7 °F /  21.5 °C 67.6 °F /  19.8 °C 29.87in /  1011.4hPa Calm     90% 0.00in /  0mm 178 W/m2
08:49 70.8 °F /  21.6 °C 67.7 °F /  19.8 °C 29.88in /  1011.7hPa Calm     90% 0.00in /  0mm 227 W/m2
08:54 71 °F /  21.7 °C 67.9 °F /  19.9 °C 29.87in /  1011.4hPa Calm     90% 0.00in /  0mm 353 W/m2
08:59 71.2 °F /  21.8 °C 68 °F /  20 °C 29.87in /  1011.4hPa Calm   1mph /  1.6km/h 89.7% 0.00in /  0mm 353 W/m2
09:04 71.4 °F /  21.9 °C 68 °F /  20 °C 29.87in /  1011.4hPa Calm   1mph /  1.6km/h 88.9% 0.00in /  0mm 285 W/m2
09:09 71.7 °F /  22.1 °C 68.2 °F /  20.1 °C 29.88in /  1011.7hPa Calm     88.9% 0.00in /  0mm 234 W/m2
09:14 71.9 °F /  22.2 °C 68.2 °F /  20.1 °C 29.87in /  1011.4hPa Calm   1mph /  1.6km/h 88% 0.00in /  0mm 179 W/m2
09:19 72.1 °F /  22.3 °C 68.2 °F /  20.1 °C 29.88in /  1011.7hPa Calm   1mph /  1.6km/h 87.6% 0.00in /  0mm 255 W/m2
09:24 72.2 °F /  22.3 °C 68.2 °F /  20.1 °C 29.88in /  1011.7hPa Calm   1mph /  1.6km/h 87% 0.00in /  0mm 199 W/m2
09:29 72.5 °F /  22.5 °C 68.4 °F /  20.2 °C 29.87in /  1011.4hPa Calm   1mph /  1.6km/h 87% 0.00in /  0mm 216 W/m2
09:34 72.7 °F /  22.6 °C 68.6 °F /  20.3 °C 29.87in /  1011.4hPa Calm   1mph /  1.6km/h 86.9% 0.00in /  0mm 272 W/m2
09:39 72.9 °F /  22.7 °C 68.7 °F /  20.4 °C 29.87in /  1011.4hPa SSW 0.1mph /  0.2km/h 2mph /  3.2km/h 86.5% 0.00in /  0mm 211 W/m2
09:44 73.2 °F /  22.9 °C 68.5 °F /  20.3 °C 29.87in /  1011.4hPa Calm   2mph /  3.2km/h 85.5% 0.00in /  0mm 160 W/m2
09:49 73.3 °F /  22.9 °C 68.3 °F /  20.2 °C 29.87in /  1011.4hPa SSW 0.1mph /  0.2km/h 3mph /  4.8km/h 84.3% 0.00in /  0mm 162 W/m2
09:54 73.3 °F /  22.9 °C 67.9 °F /  19.9 °C 29.87in /  1011.4hPa SSW 0.1mph /  0.2km/h 3mph /  4.8km/h 83.2% 0.00in /  0mm 144 W/m2
09:59 73.4 °F /  23 °C 67.9 °F /  19.9 °C 29.87in /  1011.4hPa Calm   3mph /  4.8km/h 83% 0.00in /  0mm 144 W/m2
10:04 73.4 °F /  23 °C 67.9 °F /  19.9 °C 29.87in /  1011.4hPa Calm   3mph /  4.8km/h 83% 0.00in /  0mm 148 W/m2
10:09 73.4 °F /  23 °C 68 °F /  20 °C 29.87in /  1011.4hPa Calm     83.2% 0.00in /  0mm 132 W/m2
10:14 73.5 °F /  23.1 °C 68 °F /  20 °C 29.87in /  1011.4hPa Calm     83% 0.00in /  0mm 225 W/m2
10:19 73.5 °F /  23.1 °C 68.1 °F /  20.1 °C 29.87in /  1011.4hPa Calm   1mph /  1.6km/h 83% 0.00in /  0mm 248 W/m2
10:24 73.7 °F /  23.2 °C 68.2 °F /  20.1 °C 29.87in /  1011.4hPa Calm   1mph /  1.6km/h 82.8% 0.00in /  0mm 311 W/m2
10:29 73.9 °F /  23.3 °C 68.1 °F /  20.1 °C 29.87in /  1011.4hPa SW 0.3mph /  0.5km/h 5mph /  8km/h 82% 0.00in /  0mm 276 W/m2
10:34 74.2 °F /  23.4 °C 68.5 °F /  20.3 °C 29.87in /  1011.4hPa SW 0.1mph /  0.2km/h 5mph /  8km/h 82.5% 0.00in /  0mm 255 W/m2
10:39 74.4 °F /  23.6 °C 68.6 °F /  20.3 °C 29.87in /  1011.4hPa Calm   3mph /  4.8km/h 82.1% 0.00in /  0mm 234 W/m2
10:43 74.6 °F /  23.7 °C 68.7 °F /  20.4 °C 29.86in /  1011.1hPa Calm   3mph /  4.8km/h 81.9% 0.00in /  0mm 227 W/m2
11:00 75.3 °F /  24.1 °C 68.3 °F /  20.2 °C 29.86in /  1011.1hPa Calm   3mph /  4.8km/h 79% 0.00in /  0mm 258 W/m2
11:30 76 °F /  24.4 °C 69 °F /  20.6 °C 29.87in /  1011.4hPa Calm   3mph /  4.8km/h 79% 0.00in /  0mm 269 W/m2
12:04 76.4 °F /  24.7 °C 69.4 °F /  20.8 °C 29.87in /  1011.4hPa Calm   3mph /  4.8km/h 79% 0.00in /  0mm 397 W/m2
12:09 76.5 °F /  24.7 °C 69.8 °F /  21 °C 29.85in /  1010.7hPa SSW 0.1mph /  0.2km/h 3mph /  4.8km/h 79.7% 0.00in /  0mm 506 W/m2
12:14 76.7 °F /  24.8 °C 69.7 °F /  20.9 °C 29.85in /  1010.7hPa SSW 0.3mph /  0.5km/h 3mph /  4.8km/h 79% 0.00in /  0mm 513 W/m2
12:19 76.9 °F /  24.9 °C 69.7 °F /  20.9 °C 29.84in /  1010.4hPa SSW 0.2mph /  0.3km/h 3mph /  4.8km/h 78.3% 0.00in /  0mm 663 W/m2
12:24 77.1 °F /  25.1 °C 69.8 °F /  21 °C 29.84in /  1010.4hPa SSW 0.4mph /  0.6km/h 4mph /  6.4km/h 78.2% 0.00in /  0mm 765 W/m2
12:29 77.4 °F /  25.2 °C 70 °F /  21.1 °C 29.84in /  1010.4hPa South 0.1mph /  0.2km/h 4mph /  6.4km/h 78.2% 0.00in /  0mm 763 W/m2
12:34 77.6 °F /  25.3 °C 69.8 °F /  21 °C 29.83in /  1010hPa SSW 0.2mph /  0.3km/h 4mph /  6.4km/h 76.8% 0.00in /  0mm 659 W/m2
12:39 77.9 °F /  25.5 °C 69.6 °F /  20.9 °C 29.83in /  1010hPa SSW 0.2mph /  0.3km/h 4mph /  6.4km/h 75.7% 0.00in /  0mm 701 W/m2
12:44 78.1 °F /  25.6 °C 69.9 °F /  21.1 °C 29.83in /  1010hPa SSW 1.1mph /  1.8km/h 7mph /  11.3km/h 76% 0.00in /  0mm 673 W/m2
12:49 78.1 °F /  25.6 °C 69.8 °F /  21 °C 29.83in /  1010hPa SSW 0.4mph /  0.6km/h 7mph /  11.3km/h 75.6% 0.00in /  0mm 673 W/m2
12:54 78.1 °F /  25.6 °C 70 °F /  21.1 °C 29.83in /  1010hPa SW 0.2mph /  0.3km/h 7mph /  11.3km/h 76.1% 0.00in /  0mm 496 W/m2
12:59 78.1 °F /  25.6 °C 70.1 °F /  21.2 °C 29.83in /  1010hPa Calm   7mph /  11.3km/h 76.3% 0.00in /  0mm 496 W/m2
13:04 78.3 °F /  25.7 °C 70.2 °F /  21.2 °C 29.83in /  1010hPa SW 0.4mph /  0.6km/h 4mph /  6.4km/h 76.1% 0.00in /  0mm 490 W/m2
13:09 78.5 °F /  25.8 °C 69.6 °F /  20.9 °C 29.83in /  1010hPa SW 0.5mph /  0.8km/h 5mph /  8km/h 74.4% 0.00in /  0mm 371 W/m2
13:14 78.7 °F /  25.9 °C 69.7 °F /  20.9 °C 29.83in /  1010hPa SW 0.8mph /  1.3km/h 5mph /  8km/h 74.1% 0.00in /  0mm 373 W/m2
13:19 78.8 °F /  26 °C 69.4 °F /  20.8 °C 29.83in /  1010hPa Calm   5mph /  8km/h 73% 0.00in /  0mm 364 W/m2
13:24 78.8 °F /  26 °C 69.2 °F /  20.7 °C 29.83in /  1010hPa West 0.2mph /  0.3km/h 5mph /  8km/h 72.5% 0.00in /  0mm 360 W/m2
13:29 78.6 °F /  25.9 °C 68.9 °F /  20.5 °C 29.83in /  1010hPa Calm   5mph /  8km/h 72% 0.00in /  0mm 239 W/m2
13:34 78.5 °F /  25.8 °C 69.2 °F /  20.7 °C 29.82in /  1009.7hPa West 0.5mph /  0.8km/h 5mph /  8km/h 73.3% 0.00in /  0mm 265 W/m2
13:39 78.4 °F /  25.8 °C 69.3 °F /  20.7 °C 29.83in /  1010hPa WSW 0.1mph /  0.2km/h 4mph /  6.4km/h 73.5% 0.00in /  0mm 302 W/m2
13:44 78.4 °F /  25.8 °C 69.6 °F /  20.9 °C 29.83in /  1010hPa WSW 0.2mph /  0.3km/h 4mph /  6.4km/h 74.4% 0.00in /  0mm 271 W/m2
13:49 78.4 °F /  25.8 °C 69.7 °F /  20.9 °C 29.83in /  1010hPa WSW 0.6mph /  1km/h 4mph /  6.4km/h 74.6% 0.00in /  0mm 283 W/m2
13:54 78.4 °F /  25.8 °C 70 °F /  21.1 °C 29.83in /  1010hPa WSW 0.3mph /  0.5km/h 4mph /  6.4km/h 75.5% 0.00in /  0mm 302 W/m2
13:59 78.5 °F /  25.8 °C 69.5 °F /  20.8 °C 29.83in /  1010hPa SW 1.1mph /  1.8km/h 8mph /  12.9km/h 73.9% 0.00in /  0mm 271 W/m2
14:04 78.4 °F /  25.8 °C 67.8 °F /  19.9 °C 29.83in /  1010hPa WSW 1.1mph /  1.8km/h 9mph /  14.5km/h 70.1% 0.00in /  0mm 248 W/m2
14:09 78.2 °F /  25.7 °C 67.5 °F /  19.7 °C 29.83in /  1010hPa West 2.4mph /  3.9km/h 9mph /  14.5km/h 69.6% 0.00in /  0mm 232 W/m2
14:14 78.1 °F /  25.6 °C 67.7 °F /  19.8 °C 29.83in /  1010hPa WNW 0.8mph /  1.3km/h 9mph /  14.5km/h 70.4% 0.00in /  0mm 223 W/m2
14:19 78 °F /  25.6 °C 68 °F /  20 °C 29.82in /  1009.7hPa WNW 1.6mph /  2.6km/h 9mph /  14.5km/h 71.4% 0.00in /  0mm 229 W/m2
14:24 77.8 °F /  25.4 °C 67.4 °F /  19.7 °C 29.83in /  1010hPa WNW 3mph /  4.8km/h 11mph /  17.7km/h 70.3% 0.00in /  0mm 346 W/m2
14:29 77.5 °F /  25.3 °C 67.5 °F /  19.7 °C 29.83in /  1010hPa WNW 2.4mph /  3.9km/h 11mph /  17.7km/h 71.3% 0.00in /  0mm 554 W/m2
14:34 77.3 °F /  25.2 °C 67.7 °F /  19.8 °C 29.83in /  1010hPa WNW 1.2mph /  1.9km/h 11mph /  17.7km/h 72.2% 0.00in /  0mm 554 W/m2
14:39 77.5 °F /  25.3 °C 68 °F /  20 °C 29.82in /  1009.7hPa WNW 1.1mph /  1.8km/h 6mph /  9.7km/h 72.6% 0.00in /  0mm 418 W/m2
14:44 77.6 °F /  25.3 °C 68 °F /  20 °C 29.82in /  1009.7hPa WNW 1.7mph /  2.7km/h 6mph /  9.7km/h 72.2% 0.00in /  0mm 279 W/m2
14:49 77.6 °F /  25.3 °C 68.7 °F /  20.4 °C 29.82in /  1009.7hPa WNW 1.2mph /  1.9km/h 6mph /  9.7km/h 74.1% 0.00in /  0mm 241 W/m2
14:54 77.6 °F /  25.3 °C 70 °F /  21.1 °C 29.83in /  1010hPa WNW 1.3mph /  2.1km/h 6mph /  9.7km/h 77.5% 0.01in /  0.25mm 227 W/m2
14:59 77.2 °F /  25.1 °C 70.2 °F /  21.2 °C 29.82in /  1009.7hPa WNW 0.7mph /  1.1km/h 6mph /  9.7km/h 78.9% 0.01in /  0.25mm 355 W/m2
15:04 76.7 °F /  24.8 °C 69.8 °F /  21 °C 29.82in /  1009.7hPa WNW 0.3mph /  0.5km/h 6mph /  9.7km/h 79.3% 0.01in /  0.25mm 315 W/m2
15:09 76.4 °F /  24.7 °C 69.9 °F /  21.1 °C 29.82in /  1009.7hPa WNW 0.6mph /  1km/h 6mph /  9.7km/h 80.5% 0.01in /  0.25mm 329 W/m2
15:14 76.3 °F /  24.6 °C 70 °F /  21.1 °C 29.81in /  1009.4hPa WNW 0.4mph /  0.6km/h 6mph /  9.7km/h 81% 0.01in /  0.25mm 230 W/m2
15:19 76.3 °F /  24.6 °C 70.1 °F /  21.2 °C 29.82in /  1009.7hPa WNW 0.3mph /  0.5km/h 6mph /  9.7km/h 81.2% 0.01in /  0.25mm 218 W/m2
15:24 76.4 °F /  24.7 °C 70.7 °F /  21.5 °C 29.82in /  1009.7hPa Calm   6mph /  9.7km/h 82.5% 0.01in /  0.25mm 181 W/m2
15:29 76.4 °F /  24.7 °C 70.7 °F /  21.5 °C 29.82in /  1009.7hPa WNW 0.3mph /  0.5km/h 6mph /  9.7km/h 82.7% 0.02in /  0.51mm 178 W/m2
15:34 76.4 °F /  24.7 °C 70.7 °F /  21.5 °C 29.82in /  1009.7hPa Calm   6mph /  9.7km/h 82.7% 0.02in /  0.51mm 195 W/m2
15:39 76.2 °F /  24.6 °C 70.6 °F /  21.4 °C 29.81in /  1009.4hPa Calm   3mph /  4.8km/h 82.6% 0.02in /  0.51mm 251 W/m2
15:44 76.4 °F /  24.7 °C 71.4 °F /  21.9 °C 29.82in /  1009.7hPa WNW 0.2mph /  0.3km/h 3mph /  4.8km/h 84.5% 0.02in /  0.51mm 912 W/m2
15:49 76.8 °F /  24.9 °C 71.3 °F /  21.8 °C 29.81in /  1009.4hPa West 0.5mph /  0.8km/h 3mph /  4.8km/h 83.2% 0.02in /  0.51mm 812 W/m2
15:54 77.2 °F /  25.1 °C 71.2 °F /  21.8 °C 29.81in /  1009.4hPa West 0.4mph /  0.6km/h 4mph /  6.4km/h 81.7% 0.02in /  0.51mm 603 W/m2
15:59 77.7 °F /  25.4 °C 70.5 °F /  21.4 °C 29.81in /  1009.4hPa West 0.4mph /  0.6km/h 4mph /  6.4km/h 78.7% 0.02in /  0.51mm 380 W/m2
16:04 78.1 °F /  25.6 °C 70.6 °F /  21.4 °C 29.81in /  1009.4hPa Calm     77.8% 0.02in /  0.51mm 621 W/m2
16:09 78.2 °F /  25.7 °C 70.5 °F /  21.4 °C 29.81in /  1009.4hPa West 0.5mph /  0.8km/h 3mph /  4.8km/h 77.3% 0.02in /  0.51mm 621 W/m2
16:14 78.3 °F /  25.7 °C 69.9 °F /  21.1 °C 29.81in /  1009.4hPa WNW 2.8mph /  4.5km/h 6mph /  9.7km/h 75.6% 0.02in /  0.51mm 192 W/m2
16:19 78.1 °F /  25.6 °C 69.6 °F /  20.9 °C 29.81in /  1009.4hPa WNW 1.8mph /  2.9km/h 6mph /  9.7km/h 75.1% 0.02in /  0.51mm 176 W/m2
16:24 77.9 °F /  25.5 °C 69.7 °F /  20.9 °C 29.80in /  1009hPa WNW 1.8mph /  2.9km/h 9mph /  14.5km/h 75.9% 0.02in /  0.51mm 179 W/m2
16:29 77.7 °F /  25.4 °C 69.3 °F /  20.7 °C 29.81in /  1009.4hPa West 1.6mph /  2.6km/h 9mph /  14.5km/h 75.3% 0.02in /  0.51mm 186 W/m2
16:34 77.5 °F /  25.3 °C 69.1 °F /  20.6 °C 29.81in /  1009.4hPa Calm   9mph /  14.5km/h 75.3% 0.02in /  0.51mm 186 W/m2
16:39 77.4 °F /  25.2 °C 69.5 °F /  20.8 °C 29.80in /  1009hPa Calm     76.7% 0.00in /  0mm 167 W/m2
16:44 77.2 °F /  25.1 °C 69.4 °F /  20.8 °C 29.81in /  1009.4hPa Calm     76.8% 0.00in /  0mm 176 W/m2
16:49 77.1 °F /  25.1 °C 69.7 °F /  20.9 °C 29.81in /  1009.4hPa Calm     77.8% 0.00in /  0mm 176 W/m2
16:54 77.1 °F /  25.1 °C 69.7 °F /  20.9 °C 29.81in /  1009.4hPa Calm     78% 0.00in /  0mm 178 W/m2
16:59 77.1 °F /  25.1 °C 69.8 °F /  21 °C 29.81in /  1009.4hPa Calm     78.3% 0.00in /  0mm 181 W/m2
17:04 77.1 °F /  25.1 °C 69.8 °F /  21 °C 29.81in /  1009.4hPa Calm     78.3% 0.00in /  0mm 181 W/m2
17:09 77.1 °F /  25.1 °C 69.6 °F /  20.9 °C 29.81in /  1009.4hPa Calm     77.6% 0.00in /  0mm 186 W/m2
17:14 77.2 °F /  25.1 °C 69.5 °F /  20.8 °C 29.81in /  1009.4hPa Calm     77.2% 0.00in /  0mm 185 W/m2
17:19 77.3 °F /  25.2 °C 69.3 °F /  20.7 °C 29.81in /  1009.4hPa Calm     76.5% 0.00in /  0mm 181 W/m2
17:24 77.4 °F /  25.2 °C 69.7 °F /  20.9 °C 29.81in /  1009.4hPa Calm     77% 0.00in /  0mm 176 W/m2
17:29 77.6 °F /  25.3 °C 69.8 °F /  21 °C 29.81in /  1009.4hPa Calm     77.1% 0.00in /  0mm 169 W/m2
17:34 77.7 °F /  25.4 °C 69.9 °F /  21.1 °C 29.81in /  1009.4hPa Calm     77% 0.00in /  0mm 162 W/m2
17:39 77.7 °F /  25.4 °C 69.5 °F /  20.8 °C 29.81in /  1009.4hPa Calm     75.9% 0.00in /  0mm 153 W/m2
17:44 77.6 °F /  25.3 °C 69 °F /  20.6 °C 29.81in /  1009.4hPa Calm     75% 0.00in /  0mm 151 W/m2
17:49 77.5 °F /  25.3 °C 68.3 °F /  20.2 °C 29.81in /  1009.4hPa Calm     73.1% 0.00in /  0mm 146 W/m2
17:54 77.5 °F /  25.3 °C 68.1 °F /  20.1 °C 29.81in /  1009.4hPa Calm     72.7% 0.00in /  0mm 139 W/m2
17:59 77.5 °F /  25.3 °C 68.6 °F /  20.3 °C 29.81in /  1009.4hPa Calm     73.9% 0.00in /  0mm 130 W/m2
18:03 77.6 °F /  25.3 °C 69.1 °F /  20.6 °C 29.81in /  1009.4hPa Calm     75% 0.00in /  0mm 113 W/m2
18:30 76.6 °F /  24.8 °C 66.9 °F /  19.4 °C 29.82in /  1009.7hPa Calm     72% 0.00in /  0mm 82 W/m2
19:00 74.8 °F /  23.8 °C 66.3 °F /  19.1 °C 29.82in /  1009.7hPa Calm     75% 0.00in /  0mm 73 W/m2
19:30 73.5 °F /  23.1 °C 65.5 °F /  18.6 °C 29.82in /  1009.7hPa Calm   2mph /  3.2km/h 76% 0.00in /  0mm 44 W/m2
20:04 73 °F /  22.8 °C 65.7 °F /  18.7 °C 29.84in /  1010.4hPa Calm   2mph /  3.2km/h 77.8% 0.00in /  0mm 44 W/m2
20:09 72.9 °F /  22.7 °C 65.6 °F /  18.7 °C 29.84in /  1010.4hPa Calm   1mph /  1.6km/h 78% 0.00in /  0mm 21 W/m2
20:14 72.7 °F /  22.6 °C 65.5 °F /  18.6 °C 29.84in /  1010.4hPa Calm   1mph /  1.6km/h 78% 0.00in /  0mm 16 W/m2
20:19 72.6 °F /  22.6 °C 65.4 °F /  18.6 °C 29.84in /  1010.4hPa Calm   1mph /  1.6km/h 78% 0.00in /  0mm 12 W/m2
20:24 72.5 °F /  22.5 °C 65.2 °F /  18.4 °C 29.85in /  1010.7hPa Calm   1mph /  1.6km/h 78% 0.00in /  0mm 7 W/m2
20:29 72.3 °F /  22.4 °C 65 °F /  18.3 °C 29.85in /  1010.7hPa Calm   1mph /  1.6km/h 77.7% 0.00in /  0mm 0 W/m2
20:34 72.2 °F /  22.3 °C 64.9 °F /  18.3 °C 29.85in /  1010.7hPa Calm   1mph /  1.6km/h 77.8% 0.00in /  0mm 0 W/m2
20:39 72 °F /  22.2 °C 64.8 °F /  18.2 °C 29.85in /  1010.7hPa Calm     78% 0.00in /  0mm 0 W/m2
20:44 71.9 °F /  22.2 °C 64.7 °F /  18.2 °C 29.85in /  1010.7hPa Calm     78% 0.00in /  0mm 0 W/m2
20:49 71.7 °F /  22.1 °C 64.8 °F /  18.2 °C 29.85in /  1010.7hPa Calm     78.8% 0.00in /  0mm 0 W/m2
20:54 71.6 °F /  22 °C 64.8 °F /  18.2 °C 29.85in /  1010.7hPa Calm     79% 0.00in /  0mm 0 W/m2
20:59 71.5 °F /  21.9 °C 64.9 °F /  18.3 °C 29.85in /  1010.7hPa Calm     79.8% 0.00in /  0mm 0 W/m2
21:04 71.3 °F /  21.8 °C 65 °F /  18.3 °C 29.85in /  1010.7hPa Calm     80.6% 0.00in /  0mm 0 W/m2
21:09 71.2 °F /  21.8 °C 65 °F /  18.3 °C 29.85in /  1010.7hPa Calm     81% 0.00in /  0mm 0 W/m2
21:14 71 °F /  21.7 °C 65.1 °F /  18.4 °C 29.86in /  1011.1hPa Calm     81.5% 0.00in /  0mm 0 W/m2
21:19 70.9 °F /  21.6 °C 65.2 °F /  18.4 °C 29.86in /  1011.1hPa Calm     82.2% 0.00in /  0mm 0 W/m2
21:24 70.8 °F /  21.6 °C 65.4 °F /  18.6 °C 29.86in /  1011.1hPa Calm     83% 0.00in /  0mm 0 W/m2
21:29 70.7 °F /  21.5 °C 65.5 °F /  18.6 °C 29.86in /  1011.1hPa Calm     83.5% 0.00in /  0mm 0 W/m2
21:34 70.6 °F /  21.4 °C 65.5 °F /  18.6 °C 29.86in /  1011.1hPa Calm     84% 0.00in /  0mm 0 W/m2
21:39 70.5 °F /  21.4 °C 65.4 °F /  18.6 °C 29.86in /  1011.1hPa Calm     84.1% 0.00in /  0mm 0 W/m2
21:44 70.4 °F /  21.3 °C 65.7 °F /  18.7 °C 29.86in /  1011.1hPa Calm     85% 0.00in /  0mm 0 W/m2
21:49 70.3 °F /  21.3 °C 65.6 °F /  18.7 °C 29.86in /  1011.1hPa Calm     85.2% 0.00in /  0mm 0 W/m2
21:54 70.1 °F /  21.2 °C 65.8 °F /  18.8 °C 29.86in /  1011.1hPa Calm     86% 0.00in /  0mm 0 W/m2
21:59 69.9 °F /  21.1 °C 65.6 °F /  18.7 °C 29.86in /  1011.1hPa Calm     86% 0.00in /  0mm 0 W/m2
22:04 69.8 °F /  21 °C 65.4 °F /  18.6 °C 29.86in /  1011.1hPa Calm     86% 0.00in /  0mm 0 W/m2
22:09 69.7 °F /  20.9 °C 65.5 °F /  18.6 °C 29.87in /  1011.4hPa Calm     86.6% 0.00in /  0mm 0 W/m2
22:14 69.5 °F /  20.8 °C 65.5 °F /  18.6 °C 29.87in /  1011.4hPa Calm     87% 0.00in /  0mm 0 W/m2
22:19 69.4 °F /  20.8 °C 65.4 °F /  18.6 °C 29.87in /  1011.4hPa Calm     87.2% 0.00in /  0mm 0 W/m2
22:24 69.3 °F /  20.7 °C 65.6 °F /  18.7 °C 29.87in /  1011.4hPa Calm     88% 0.00in /  0mm 0 W/m2
22:29 69.3 °F /  20.7 °C 65.6 °F /  18.7 °C 29.87in /  1011.4hPa Calm     88.3% 0.00in /  0mm 0 W/m2
22:34 69.2 °F /  20.7 °C 65.8 °F /  18.8 °C 29.87in /  1011.4hPa Calm     89% 0.00in /  0mm 0 W/m2
22:39 69.1 °F /  20.6 °C 65.9 °F /  18.8 °C 29.87in /  1011.4hPa Calm     89.6% 0.00in /  0mm 0 W/m2
22:44 69.1 °F /  20.6 °C 66.1 °F /  18.9 °C 29.86in /  1011.1hPa Calm     90% 0.00in /  0mm 0 W/m2
22:49 69 °F /  20.6 °C 66 °F /  18.9 °C 29.86in /  1011.1hPa Calm     90.1% 0.00in /  0mm 0 W/m2
22:54 68.9 °F /  20.5 °C 65.9 °F /  18.8 °C 29.86in /  1011.1hPa Calm     90% 0.00in /  0mm 0 W/m2
22:59 68.8 °F /  20.4 °C 66 °F /  18.9 °C 29.86in /  1011.1hPa Calm     90.8% 0.00in /  0mm 0 W/m2
23:04 68.7 °F /  20.4 °C 66 °F /  18.9 °C 29.85in /  1010.7hPa Calm     91% 0.00in /  0mm 0 W/m2
23:09 68.7 °F /  20.4 °C 65.9 °F /  18.8 °C 29.85in /  1010.7hPa Calm     91% 0.00in /  0mm 0 W/m2
23:14 68.6 °F /  20.3 °C 65.8 °F /  18.8 °C 29.85in /  1010.7hPa Calm     91% 0.00in /  0mm 0 W/m2
23:19 68.4 °F /  20.2 °C 65.7 °F /  18.7 °C 29.85in /  1010.7hPa Calm     91% 0.00in /  0mm 0 W/m2
23:24 68.3 °F /  20.2 °C 65.6 °F /  18.7 °C 29.85in /  1010.7hPa Calm     91% 0.00in /  0mm 0 W/m2
23:29 68.1 °F /  20.1 °C 65.5 °F /  18.6 °C 29.85in /  1010.7hPa Calm     91.3% 0.00in /  0mm 0 W/m2
23:34 68 °F /  20 °C 65.6 °F /  18.7 °C 29.85in /  1010.7hPa Calm     92% 0.00in /  0mm 0 W/m2
23:39 67.9 °F /  19.9 °C 65.5 °F /  18.6 °C 29.85in /  1010.7hPa Calm     92% 0.00in /  0mm 0 W/m2
23:44 67.9 °F /  19.9 °C 65.5 °F /  18.6 °C 29.85in /  1010.7hPa Calm     92% 0.00in /  0mm 0 W/m2
23:49 67.8 °F /  19.9 °C 65.4 °F /  18.6 °C 29.85in /  1010.7hPa Calm     92% 0.00in /  0mm 0 W/m2
23:54 67.6 °F /  19.8 °C 65.2 °F /  18.4 °C 29.85in /  1010.7hPa Calm     92% 0.00in /  0mm 0 W/m2
23:59 67.4 °F /  19.7 °C 65 °F /  18.3 °C 29.85in /  1010.7hPa Calm     92% 0.00in /  0mm 0 W/m2
Hartford County Weather
Compliments of Weather Underground - 2 mb